| time (UTC) | temp F | wind direction | speed knots | gust knots | rain 1hr in | rain 24hr in | rain mn in | humidity % | barometer mb |
| 20260906190815 | 78 | 113 | 8.7 | 11.3 | 0.00 | 0.00 | 0.00 | 77 | 1019.1 |
| 20260906185815 | 78 | 135 | 8.7 | 12.2 | 0.00 | 0.00 | 0.00 | 76 | 1019.0 |
| 20260906184815 | 78 | 135 | 7.8 | 9.6 | 0.00 | 0.00 | 0.00 | 76 | 1019.2 |
| 20260906183835 | 78 | 135 | 9.6 | 11.3 | 0.00 | 0.00 | 0.00 | 76 | 1019.4 |
| 20260906182815 | 78 | 135 | 7.0 | 7.8 | 0.00 | 0.00 | 0.00 | 75 | 1019.1 |
| 20260906181815 | 79 | 135 | 10.4 | 12.2 | 0.00 | 0.00 | 0.00 | 74 | 1019.3 |
| 20260906180815 | 79 | 158 | 7.8 | 10.4 | 0.00 | 0.00 | 0.00 | 76 | 1019.4 |
| 20260906175815 | 79 | 135 | 9.6 | 13.0 | 0.00 | 0.00 | 0.00 | 74 | 1019.4 |
| 20260906174815 | 79 | 90 | 10.4 | 14.8 | 0.00 | 0.00 | 0.00 | 74 | 1019.3 |
| 20260906173835 | 79 | 158 | 9.6 | 11.3 | 0.00 | 0.00 | 0.00 | 74 | 1019.2 |
| 20260906172815 | 79 | 135 | 7.8 | 10.4 | 0.00 | 0.00 | 0.00 | 75 | 1019.2 |
| 20260906171815 | 79 | 135 | 7.0 | 9.6 | 0.00 | 0.00 | 0.00 | 74 | 1019.4 |
| 20260906170835 | 78 | 135 | 8.7 | 11.3 | 0.00 | 0.00 | 0.00 | 75 | 1019.5 |
| 20260906165815 | 78 | 135 | 8.7 | 12.2 | 0.00 | 0.00 | 0.00 | 77 | 1019.6 |
| 20260906164815 | 78 | 135 | 11.3 | 13.0 | 0.00 | 0.00 | 0.00 | 76 | 1019.6 |
| 20260906163815 | 78 | 135 | 6.1 | 9.6 | 0.00 | 0.00 | 0.00 | 79 | 1019.7 |
| 20260906162817 | 77 | 158 | 7.8 | 13.9 | 0.00 | 0.00 | 0.00 | 77 | 1019.7 |
| 20260906161817 | 77 | 113 | 8.7 | 11.3 | 0.00 | 0.00 | 0.00 | 79 | 1020.0 |
| 20260906160817 | 76 | 135 | 10.4 | 13.0 | 0.00 | 0.00 | 0.00 | 79 | 1020.0 |
| 20260906155817 | 76 | 135 | 7.8 | 10.4 | 0.00 | 0.00 | 0.00 | 80 | 1020.0 |
| 20260906154817 | 75 | 113 | 7.8 | 8.7 | 0.00 | 0.00 | 0.00 | 81 | 1020.1 |
| 20260906153817 | 75 | 135 | 7.8 | 11.3 | 0.00 | 0.00 | 0.00 | 83 | 1020.4 |
| 20260906152817 | 74 | 158 | 7.0 | 8.7 | 0.00 | 0.00 | 0.00 | 84 | 1020.2 |
| 20260906151835 | 74 | 158 | 3.5 | 6.1 | 0.00 | 0.00 | 0.00 | 89 | 1020.3 |
| 20260906150836 | 73 | 135 | 8.7 | 10.4 | 0.00 | 0.00 | 0.00 | 94 | 1020.1 |
| 20260906145816 | 72 | 135 | 5.2 | 7.8 | 0.00 | 0.00 | 0.00 | 100 | 1020.1 |
| 20260906144835 | 71 | 113 | 6.1 | 7.0 | 0.00 | 0.00 | 0.00 | 100 | 1019.9 |
| 20260906143817 | 70 | 135 | 6.1 | 7.8 | 0.00 | 0.00 | 0.00 | 100 | 1020.2 |
| 20260906142816 | 70 | 113 | 6.1 | 7.8 | 0.00 | 0.00 | 0.00 | 100 | 1020.0 |
| 20260906141816 | 69 | 113 | 4.3 | 7.0 | 0.00 | 0.00 | 0.00 | 100 | 1019.9 |
| 20260906140816 | 68 | 68 | 2.6 | 3.5 | 0.00 | 0.00 | 0.00 | 100 | 1019.8 |
| 20260906135817 | 67 | 113 | 4.3 | 6.1 | 0.00 | 0.00 | 0.00 | 100 | 1019.8 |
| 20260906134816 | 67 | 135 | 5.2 | 7.0 | 0.00 | 0.00 | 0.00 | 100 | 1019.7 |
| 20260906133836 | 67 | 135 | 5.2 | 7.8 | 0.00 | 0.00 | 0.00 | 100 | 1019.6 |
| 20260906132816 | 66 | 113 | 7.0 | 8.7 | 0.00 | 0.00 | 0.00 | 100 | 1019.6 |
| 20260906131816 | 66 | 113 | 3.5 | 4.3 | 0.00 | 0.00 | 0.00 | 100 | 1019.7 |
| 20260906130816 | 66 | 113 | 5.2 | 7.8 | 0.00 | 0.00 | 0.00 | 100 | 1019.5 |
| 20260906125817 | 65 | 113 | 1.7 | 2.6 | 0.00 | 0.00 | 0.00 | 100 | 1019.7 |
| 20260906124816 | 65 | 113 | 3.5 | 6.1 | 0.00 | 0.00 | 0.00 | 100 | 1019.5 |
| 20260906123816 | 64 | 113 | 1.7 | 2.6 | 0.00 | 0.00 | 0.00 | 100 | 1019.6 |
| 20260906122816 | 64 | 90 | 0.9 | 1.7 | 0.00 | 0.00 | 0.00 | 100 | 1019.4 |
| 20260906121817 | 64 | 113 | 5.2 | 7.0 | 0.00 | 0.00 | 0.00 | 100 | 1019.2 |
| 20260906120816 | 64 | 90 | 2.6 | 3.5 | 0.00 | 0.00 | 0.00 | 100 | 1019.2 |
| 20260906115816 | 63 | 90 | 0.9 | 1.7 | 0.00 | 0.00 | 0.00 | 100 | 1019.2 |
| 20260906114816 | 63 | 68 | 2.6 | 4.3 | 0.00 | 0.00 | 0.00 | 100 | 1019.3 |
| 20260906113816 | 63 | 68 | 0.9 | 2.6 | 0.00 | 0.00 | 0.00 | 100 | 1019.4 |
| 20260906112816 | 63 | 90 | 0.9 | 1.7 | 0.00 | 0.00 | 0.00 | 100 | 1019.5 |
| 20260906111816 | 63 | 0.0 | 0.0 | 0.00 | 0.00 | 0.00 | 100 | 1019.3 | |
| 20260906110816 | 63 | 0.0 | 1.7 | 0.00 | 0.00 | 0.00 | 100 | 1019.3 | |
| 20260906105836 | 63 | 0.0 | 1.7 | 0.00 | 0.00 | 0.00 | 100 | 1019.3 | |
| 20260906104816 | 63 | 0.0 | 0.0 | 0.00 | 0.00 | 0.00 | 100 | 1019.2 | |
| 20260906103816 | 64 | 0.0 | 0.0 | 0.00 | 0.00 | 0.00 | 100 | 1019.3 | |
| 20260906102816 | 64 | 0.0 | 0.0 | 0.00 | 0.00 | 0.00 | 100 | 1019.2 | |
| 20260906101816 | 64 | 0.0 | 0.0 | 0.00 | 0.00 | 0.00 | 100 | 1019.3 | |
| 20260906100816 | 64 | 90 | 1.7 | 2.6 | 0.00 | 0.00 | 0.00 | 100 | 1019.0 |
| 20260906095816 | 64 | 0.0 | 1.7 | 0.00 | 0.00 | 0.00 | 100 | 1018.9 | |
| 20260906094816 | 64 | 90 | 1.7 | 3.5 | 0.00 | 0.00 | 0.00 | 100 | 1018.6 |
| 20260906093856 | 64 | 90 | 1.7 | 3.5 | 0.00 | 0.00 | 0.00 | 100 | 1018.6 |
| 20260906092816 | 64 | 113 | 2.6 | 3.5 | 0.00 | 0.00 | 0.00 | 100 | 1018.3 |
| 20260906091816 | 64 | 90 | 2.6 | 6.1 | 0.00 | 0.00 | 0.00 | 100 | 1018.5 |
| 20260906090816 | 64 | 113 | 2.6 | 3.5 | 0.00 | 0.00 | 0.00 | 100 | 1018.5 |
| 20260906085816 | 64 | 135 | 4.3 | 7.0 | 0.00 | 0.00 | 0.00 | 100 | 1018.6 |
| 20260906084836 | 64 | 90 | 2.6 | 5.2 | 0.00 | 0.00 | 0.00 | 100 | 1018.7 |
| 20260906083836 | 64 | 68 | 2.6 | 4.3 | 0.00 | 0.00 | 0.00 | 100 | 1018.7 |
| 20260906082836 | 64 | 45 | 0.9 | 1.7 | 0.00 | 0.00 | 0.00 | 100 | 1018.7 |
| 20260906081816 | 64 | 0.0 | 0.9 | 0.00 | 0.00 | 0.00 | 100 | 1018.7 | |
| 20260906080816 | 64 | 90 | 1.7 | 2.6 | 0.00 | 0.00 | 0.00 | 100 | 1018.5 |
| 20260906075816 | 64 | 68 | 0.9 | 1.7 | 0.00 | 0.00 | 0.00 | 100 | 1018.6 |
| 20260906074816 | 64 | 45 | 0.9 | 2.6 | 0.00 | 0.00 | 0.00 | 100 | 1018.5 |
| 20260906073816 | 64 | 45 | 0.9 | 2.6 | 0.00 | 0.00 | 0.00 | 100 | 1018.5 |
| 20260906072836 | 64 | 68 | 1.7 | 2.6 | 0.00 | 0.00 | 0.00 | 100 | 1018.6 |
| 20260906071816 | 64 | 68 | 0.9 | 1.7 | 0.00 | 0.00 | 0.00 | 100 | 1018.6 |
| 20260906070816 | 64 | 45 | 2.6 | 4.3 | 0.00 | 0.00 | 0.00 | 99 | 1018.8 |
| 20260906065816 | 64 | 90 | 0.9 | 2.6 | 0.00 | 0.00 | 0.00 | 99 | 1019.0 |
| 20260906064816 | 64 | 45 | 0.9 | 3.5 | 0.00 | 0.00 | 0.00 | 99 | 1019.0 |
| 20260906063816 | 65 | 90 | 1.7 | 3.5 | 0.00 | 0.00 | 0.00 | 99 | 1019.0 |
| 20260906062816 | 65 | 113 | 1.7 | 3.5 | 0.00 | 0.00 | 0.00 | 99 | 1019.0 |
| 20260906061816 | 65 | 45 | 1.7 | 4.3 | 0.00 | 0.00 | 0.00 | 98 | 1018.9 |
| 20260906060816 | 65 | 0.0 | 0.9 | 0.00 | 0.00 | 0.00 | 98 | 1018.9 | |
| 20260906055815 | 65 | 68 | 1.7 | 2.6 | 0.00 | 0.00 | 0.00 | 98 | 1019.1 |
| 20260906054836 | 65 | 90 | 0.9 | 1.7 | 0.00 | 0.00 | 0.00 | 98 | 1018.9 |
| 20260906053816 | 66 | 68 | 0.9 | 2.6 | 0.00 | 0.00 | 0.00 | 97 | 1018.8 |
| 20260906052815 | 66 | 45 | 0.9 | 1.7 | 0.00 | 0.00 | 0.00 | 97 | 1018.8 |
| 20260906051816 | 66 | 68 | 2.6 | 3.5 | 0.00 | 0.00 | 0.00 | 97 | 1018.7 |
| 20260906050815 | 66 | 90 | 1.7 | 3.5 | 0.00 | 0.00 | 0.00 | 97 | 1018.6 |
| 20260906045816 | 66 | 113 | 1.7 | 4.3 | 0.00 | 0.00 | 0.00 | 96 | 1018.7 |
| 20260906044816 | 66 | 90 | 0.9 | 1.7 | 0.00 | 0.00 | 0.00 | 96 | 1018.8 |
| 20260906043816 | 67 | 0.0 | 0.0 | 0.00 | 0.00 | 0.00 | 96 | 1018.9 | |
| 20260906042816 | 67 | 90 | 1.7 | 2.6 | 0.00 | 0.00 | 0.00 | 95 | 1018.9 |
| 20260906041816 | 67 | 90 | 0.9 | 1.7 | 0.00 | 0.00 | 0.00 | 95 | 1018.8 |
| 20260906040816 | 67 | 68 | 0.9 | 1.7 | 0.00 | 0.00 | 0.00 | 95 | 1018.7 |
| 20260906035816 | 67 | 90 | 1.7 | 2.6 | 0.00 | 0.00 | 0.00 | 95 | 1018.8 |
| 20260906034816 | 68 | 0.0 | 0.0 | 0.00 | 0.00 | 0.00 | 95 | 1018.9 | |
| 20260906033816 | 68 | 68 | 0.9 | 2.6 | 0.00 | 0.00 | 0.00 | 95 | 1018.8 |
| 20260906032816 | 68 | 90 | 1.7 | 2.6 | 0.00 | 0.00 | 0.00 | 95 | 1018.7 |
| 20260906031816 | 68 | 90 | 1.7 | 3.5 | 0.00 | 0.00 | 0.00 | 96 | 1018.5 |
| 20260906030816 | 67 | 0.0 | 1.7 | 0.00 | 0.00 | 0.00 | 96 | 1018.8 | |
| 20260906025816 | 67 | 0.0 | 0.0 | 0.00 | 0.00 | 0.00 | 95 | 1018.8 | |
| 20260906024815 | 67 | 0.0 | 0.0 | 0.00 | 0.00 | 0.00 | 95 | 1018.7 | |
| 20260906023815 | 68 | 68 | 0.9 | 2.6 | 0.00 | 0.00 | 0.00 | 95 | 1018.8 |
| 20260906022816 | 68 | 68 | 0.9 | 0.9 | 0.00 | 0.00 | 0.00 | 94 | 1018.7 |
| 20260906021815 | 68 | 0.0 | 0.0 | 0.00 | 0.00 | 0.00 | 94 | 1018.8 | |
| 20260906020816 | 68 | 45 | 0.9 | 1.7 | 0.00 | 0.00 | 0.00 | 93 | 1018.7 |
| 20260906015815 | 68 | 0.0 | 0.9 | 0.00 | 0.00 | 0.00 | 93 | 1018.4 | |
| 20260906014836 | 68 | 0.0 | 0.9 | 0.00 | 0.00 | 0.00 | 92 | 1018.3 | |
| 20260906013816 | 69 | 0.0 | 0.0 | 0.00 | 0.00 | 0.00 | 91 | 1017.8 | |
| 20260906012835 | 69 | 0.0 | 0.0 | 0.00 | 0.00 | 0.00 | 90 | 1017.5 | |
| 20260906011815 | 70 | 0.0 | 0.0 | 0.00 | 0.00 | 0.00 | 89 | 1017.4 | |
| 20260906010816 | 70 | 0.0 | 0.0 | 0.00 | 0.00 | 0.00 | 88 | 1017.3 | |
| 20260906005815 | 71 | 0.0 | 0.0 | 0.00 | 0.00 | 0.00 | 87 | 1017.0 | |
| 20260906004855 | 72 | 0.0 | 0.0 | 0.00 | 0.00 | 0.00 | 86 | 1016.9 | |
| 20260906003816 | 73 | 0.0 | 0.0 | 0.00 | 0.00 | 0.00 | 84 | 1016.5 | |
| 20260906002815 | 73 | 0.0 | 0.9 | 0.00 | 0.00 | 0.00 | 82 | 1016.6 | |
| 20260906001835 | 73 | 90 | 1.7 | 2.6 | 0.00 | 0.00 | 0.00 | 81 | 1016.1 |
| 20260906000815 | 74 | 90 | 1.7 | 1.7 | 0.00 | 0.00 | 0.00 | 80 | 1016.1 |
| 20260905235815 | 74 | 113 | 5.2 | 7.0 | 0.00 | 0.00 | 0.00 | 79 | 1016.1 |
| 20260905234815 | 75 | 90 | 4.3 | 6.1 | 0.00 | 0.00 | 0.00 | 78 | 1016.3 |
| 20260905233815 | 75 | 90 | 1.7 | 2.6 | 0.00 | 0.00 | 0.00 | 77 | 1016.2 |
| 20260905232815 | 75 | 113 | 3.5 | 7.0 | 0.00 | 0.00 | 0.00 | 76 | 1016.1 |
| 20260905231815 | 75 | 113 | 2.6 | 3.5 | 0.00 | 0.00 | 0.00 | 76 | 1016.1 |
| 20260905230815 | 75 | 113 | 7.8 | 9.6 | 0.00 | 0.00 | 0.00 | 75 | 1016.2 |
| 20260905225815 | 76 | 90 | 1.7 | 2.6 | 0.00 | 0.00 | 0.00 | 74 | 1016.4 |
| 20260905224815 | 76 | 45 | 4.3 | 7.8 | 0.00 | 0.00 | 0.00 | 75 | 1016.6 |
| 20260905223815 | 77 | 113 | 5.2 | 7.8 | 0.00 | 0.00 | 0.00 | 73 | 1016.7 |
| 20260905222815 | 77 | 113 | 5.2 | 7.8 | 0.00 | 0.00 | 0.00 | 73 | 1016.7 |
| 20260905221815 | 77 | 90 | 2.6 | 6.1 | 0.00 | 0.00 | 0.00 | 72 | 1016.8 |
| 20260905220835 | 77 | 68 | 3.5 | 4.3 | 0.00 | 0.00 | 0.00 | 73 | 1016.7 |
| 20260905215815 | 77 | 68 | 5.2 | 9.6 | 0.00 | 0.00 | 0.00 | 72 | 1016.7 |
| 20260905214815 | 78 | 90 | 6.1 | 10.4 | 0.00 | 0.00 | 0.00 | 72 | 1016.8 |
| 20260905213815 | 78 | 68 | 5.2 | 11.3 | 0.00 | 0.00 | 0.00 | 72 | 1017.0 |
| 20260905212815 | 78 | 90 | 5.2 | 7.0 | 0.00 | 0.00 | 0.00 | 71 | 1017.2 |
| 20260905211815 | 78 | 90 | 3.5 | 6.1 | 0.00 | 0.00 | 0.00 | 73 | 1017.3 |
| 20260905210815 | 77 | 113 | 8.7 | 11.3 | 0.00 | 0.00 | 0.00 | 74 | 1017.3 |
| 20260905205815 | 77 | 113 | 7.0 | 10.4 | 0.00 | 0.00 | 0.00 | 75 | 1017.7 |
| 20260905204815 | 77 | 135 | 9.6 | 13.9 | 0.00 | 0.00 | 0.00 | 76 | 1017.5 |
| 20260905203815 | 77 | 90 | 7.0 | 11.3 | 0.00 | 0.00 | 0.00 | 74 | 1017.6 |
| 20260905202815 | 77 | 113 | 8.7 | 11.3 | 0.00 | 0.00 | 0.00 | 73 | 1017.7 |
| 20260905201815 | 77 | 90 | 2.6 | 3.5 | 0.00 | 0.00 | 0.00 | 74 | 1017.9 |
| 20260905200815 | 77 | 113 | 6.1 | 8.7 | 0.00 | 0.00 | 0.00 | 76 | 1018.1 |
| 20260905195835 | 76 | 90 | 2.6 | 4.3 | 0.00 | 0.00 | 0.00 | 74 | 1018.4 |
| 20260905194815 | 76 | 113 | 5.2 | 7.0 | 0.00 | 0.00 | 0.00 | 75 | 1018.5 |
| 20260905193815 | 76 | 113 | 3.5 | 6.1 | 0.00 | 0.00 | 0.00 | 79 | 1019.0 |
| 20260905192815 | 75 | 68 | 0.9 | 1.7 | 0.00 | 0.00 | 0.00 | 79 | 1018.7 |
| 20260905191815 | 75 | 68 | 1.7 | 2.6 | 0.00 | 0.00 | 0.00 | 78 | 1018.7 |